Time;durP1;ratioP1;P1;durP2;ratioP2;P2;SDS_P1;SDS_P2;PMS_P1;PMS_P2;Temp;Humidity;BMP_temperature;BMP_pressure;BME280_temperature;BME280_humidity;BME280_pressure;Samples;Min_cycle;Max_cycle;Signal;HPM_P1;HPM_P2
2022/04/29 00:01:32;;;;;;;13.27;4.72;;;;;;;;;;5030985;28;20032;-75
2022/04/29 00:03:59;;;;;;;12.25;4.93;;;;;;;;;;5031374;28;20045;-75
2022/04/29 00:06:26;;;;;;;18.90;5.85;;;;;;;;;;5031223;28;20444;-75
2022/04/29 00:08:52;;;;;;;11.27;4.90;;;;;;;;;;5031358;28;20040;-75
2022/04/29 00:11:18;;;;;;;10.98;4.82;;;;;;;;;;5031306;28;20084;-75
2022/04/29 00:13:44;;;;;;;13.68;5.28;;;;;;;;;;5031291;28;20030;-75
2022/04/29 00:16:11;;;;;;;13.88;5.88;;;;;;;;;;5031275;28;20048;-75
2022/04/29 00:18:37;;;;;;;11.07;5.20;;;;;;;;;;5029862;28;20039;-75
2022/04/29 00:21:04;;;;;;;15.40;5.30;;;;;;;;;;5033909;28;20022;-75
2022/04/29 00:23:30;;;;;;;10.25;5.50;;;;;;;;;;5035042;28;20018;-75
2022/04/29 00:25:57;;;;;;;14.52;5.28;;;;;;;;;;5033823;28;20030;-75
2022/04/29 00:28:23;;;;;;;11.45;5.57;;;;;;;;;;5034939;28;20430;-75
2022/04/29 00:30:49;;;;;;;13.80;5.68;;;;;;;;;;5034646;28;20021;-75
2022/04/29 00:33:15;;;;;;;16.02;5.63;;;;;;;;;;5034903;28;20060;-75
2022/04/29 00:35:41;;;;;;;12.30;5.32;;;;;;;;;;5034697;28;20425;-73
2022/04/29 00:38:10;;;;;;;19.08;6.15;;;;;;;;;;5034863;28;20095;-73
2022/04/29 00:40:36;;;;;;;11.35;5.35;;;;;;;;;;5034751;28;20036;-73
2022/04/29 00:43:02;;;;;;;13.60;5.85;;;;;;;;;;5034741;28;20040;-72
2022/04/29 00:45:28;;;;;;;17.52;5.72;;;;;;;;;;5034457;28;20140;-73
2022/04/29 00:47:54;;;;;;;12.23;6.00;;;;;;;;;;5034663;28;20021;-72
2022/04/29 00:50:23;;;;;;;15.45;5.90;;;;;;;;;;5034315;28;20227;-72
2022/04/29 00:52:50;;;;;;;16.63;6.63;;;;;;;;;;5034541;28;20045;-72
2022/04/29 00:55:17;;;;;;;13.80;6.03;;;;;;;;;;5034340;28;20506;-73
2022/04/29 00:57:48;;;;;;;13.20;6.07;;;;;;;;;;5034546;28;20025;-72
2022/04/29 01:00:15;;;;;;;12.82;6.03;;;;;;;;;;5034291;28;20032;-72
2022/04/29 01:02:42;;;;;;;13.07;6.15;;;;;;;;;;5034133;28;20033;-72
2022/04/29 01:05:10;;;;;;;14.68;6.32;;;;;;;;;;5034134;28;20036;-72
2022/04/29 01:07:36;;;;;;;19.98;7.43;;;;;;;;;;5034194;28;20025;-72
2022/04/29 01:10:03;;;;;;;17.27;6.40;;;;;;;;;;5034206;28;20044;-72
2022/04/29 01:12:32;;;;;;;17.55;6.10;;;;;;;;;;5034096;28;20029;-72
2022/04/29 01:14:59;;;;;;;14.88;6.78;;;;;;;;;;5033973;28;20467;-72
2022/04/29 01:17:25;;;;;;;16.05;6.60;;;;;;;;;;5032790;28;20025;-72
2022/04/29 01:19:51;;;;;;;15.25;7.88;;;;;;;;;;5033980;28;20032;-72
2022/04/29 01:22:17;;;;;;;14.32;6.68;;;;;;;;;;5033848;28;20029;-72
2022/04/29 01:24:44;;;;;;;17.70;6.90;;;;;;;;;;5033935;28;20100;-72
2022/04/29 01:27:11;;;;;;;14.10;7.40;;;;;;;;;;5033895;28;20685;-72
2022/04/29 01:29:41;;;;;;;23.80;6.90;;;;;;;;;;5033674;28;20459;-72
2022/04/29 01:32:09;;;;;;;12.15;6.90;;;;;;;;;;5048263;28;20040;-72
2022/04/29 01:34:36;;;;;;;15.60;6.95;;;;;;;;;;5032465;28;20510;-72
2022/04/29 01:37:02;;;;;;;25.73;6.82;;;;;;;;;;5033706;28;20372;-72
2022/04/29 01:39:28;;;;;;;18.50;6.82;;;;;;;;;;5033619;28;20030;-72
2022/04/29 01:41:54;;;;;;;20.60;8.85;;;;;;;;;;5048853;28;20036;-72
2022/04/29 01:44:20;;;;;;;21.10;7.00;;;;;;;;;;5033515;28;20021;-72
2022/04/29 01:46:46;;;;;;;20.40;7.88;;;;;;;;;;5033505;28;20104;-72
2022/04/29 01:49:12;;;;;;;19.83;7.22;;;;;;;;;;5033441;28;20460;-72
2022/04/29 01:51:38;;;;;;;19.83;7.43;;;;;;;;;;5033425;28;20037;-72
2022/04/29 01:54:09;;;;;;;18.67;7.28;;;;;;;;;;5033123;28;20050;-72
2022/04/29 01:56:36;;;;;;;18.88;7.75;;;;;;;;;;5033334;28;20383;-72
2022/04/29 01:59:02;;;;;;;15.30;7.57;;;;;;;;;;5033300;28;20029;-71
2022/04/29 02:01:28;;;;;;;30.25;7.63;;;;;;;;;;5032931;28;20471;-72
2022/04/29 02:03:55;;;;;;;17.73;7.28;;;;;;;;;;5033120;28;20471;-72
2022/04/29 02:06:21;;;;;;;17.67;6.85;;;;;;;;;;5033017;28;20025;-72
2022/04/29 02:08:48;;;;;;;17.70;6.88;;;;;;;;;;5032958;28;20026;-72
2022/04/29 02:11:17;;;;;;;18.17;6.55;;;;;;;;;;5033128;28;20040;-72
2022/04/29 02:13:43;;;;;;;20.30;7.07;;;;;;;;;;5032940;28;20500;-72
2022/04/29 02:16:09;;;;;;;20.45;7.45;;;;;;;;;;5032967;28;20079;-72
2022/04/29 02:18:36;;;;;;;19.33;6.78;;;;;;;;;;5032878;28;20048;-72
2022/04/29 02:21:02;;;;;;;20.08;7.22;;;;;;;;;;5032702;28;20021;-72
2022/04/29 02:23:28;;;;;;;20.85;6.70;;;;;;;;;;5032752;28;20479;-72
2022/04/29 02:25:55;;;;;;;16.75;6.85;;;;;;;;;;5032724;28;20030;-72
2022/04/29 02:28:21;;;;;;;22.02;7.88;;;;;;;;;;5032578;28;20025;-72
2022/04/29 02:30:47;;;;;;;19.25;6.97;;;;;;;;;;5032535;28;20094;-72
2022/04/29 02:33:13;;;;;;;15.35;7.28;;;;;;;;;;5032546;28;20146;-72
2022/04/29 02:35:39;;;;;;;23.13;7.90;;;;;;;;;;5047666;28;20112;-73
2022/04/29 02:38:05;;;;;;;19.83;7.30;;;;;;;;;;5032616;28;20040;-72
2022/04/29 02:40:32;;;;;;;19.23;6.75;;;;;;;;;;5032556;28;20029;-72
2022/04/29 02:42:58;;;;;;;18.95;7.15;;;;;;;;;;5047683;28;20021;-73
2022/04/29 02:45:24;;;;;;;16.42;7.55;;;;;;;;;;5032325;28;20780;-72
2022/04/29 02:47:50;;;;;;;21.52;7.90;;;;;;;;;;5032351;28;20063;-72
2022/04/29 02:50:16;;;;;;;15.63;7.03;;;;;;;;;;5032234;28;20026;-72
2022/04/29 02:52:42;;;;;;;19.23;7.40;;;;;;;;;;5032081;28;20080;-72
2022/04/29 02:55:08;;;;;;;16.15;7.47;;;;;;;;;;5032240;28;20170;-72
2022/04/29 02:57:34;;;;;;;21.30;7.55;;;;;;;;;;5032276;28;20025;-72
2022/04/29 03:00:00;;;;;;;20.55;7.32;;;;;;;;;;5031925;28;20025;-72
2022/04/29 03:02:27;;;;;;;14.25;8.00;;;;;;;;;;5031783;28;20542;-72
2022/04/29 03:04:53;;;;;;;23.55;8.00;;;;;;;;;;5031864;28;20029;-72
2022/04/29 03:07:19;;;;;;;15.00;7.15;;;;;;;;;;5047390;28;20056;-72
2022/04/29 03:09:47;;;;;;;16.58;7.30;;;;;;;;;;5031939;28;20033;-72
2022/04/29 03:12:14;;;;;;;19.67;7.93;;;;;;;;;;5032071;28;20025;-72
2022/04/29 03:14:42;;;;;;;14.82;8.27;;;;;;;;;;5032117;28;20057;-72
2022/04/29 03:18:17;;;;;;;16.92;7.35;;;;;;;;;;5030701;28;20028;-72
2022/04/29 03:19:59;;;;;;;20.10;8.00;;;;;;;;;;5031805;28;20041;-72
2022/04/29 03:22:26;;;;;;;17.83;8.05;;;;;;;;;;5031978;28;20047;-72
2022/04/29 03:24:52;;;;;;;16.60;8.60;;;;;;;;;;5031883;28;20044;-72
2022/04/29 03:27:18;;;;;;;23.08;8.40;;;;;;;;;;5031948;28;20045;-72
2022/04/29 03:29:44;;;;;;;23.35;8.52;;;;;;;;;;5031858;28;20048;-72
2022/04/29 03:32:11;;;;;;;21.08;7.65;;;;;;;;;;5031745;28;20442;-72
2022/04/29 03:34:37;;;;;;;19.75;7.57;;;;;;;;;;5031826;28;20040;-72
2022/04/29 03:37:03;;;;;;;16.77;7.72;;;;;;;;;;5031710;28;20026;-72
2022/04/29 03:39:29;;;;;;;19.33;8.90;;;;;;;;;;5031768;28;20104;-72
2022/04/29 03:41:55;;;;;;;23.17;8.43;;;;;;;;;;5047136;28;20038;-72
2022/04/29 03:44:21;;;;;;;15.18;7.60;;;;;;;;;;5031709;28;20117;-72
2022/04/29 03:46:47;;;;;;;14.80;7.43;;;;;;;;;;5031769;28;20107;-72
2022/04/29 03:51:58;;;;;;;21.67;8.15;;;;;;;;;;5031637;28;20037;-72
2022/04/29 03:54:24;;;;;;;15.27;8.57;;;;;;;;;;5031562;28;20057;-72
2022/04/29 03:56:51;;;;;;;20.17;8.57;;;;;;;;;;5035674;28;20041;-72
2022/04/29 03:59:17;;;;;;;21.88;8.43;;;;;;;;;;5035650;28;20034;-72
2022/04/29 04:01:43;;;;;;;18.05;8.10;;;;;;;;;;5035370;28;20036;-72
2022/04/29 04:04:09;;;;;;;19.63;8.20;;;;;;;;;;5035511;28;20026;-72
2022/04/29 04:06:50;;;;;;;24.75;8.63;;;;;;;;;;5035470;28;20018;-72
2022/04/29 04:09:21;;;;;;;17.40;8.15;;;;;;;;;;5035498;28;20145;-72
2022/04/29 04:11:48;;;;;;;20.30;7.40;;;;;;;;;;5035354;28;20030;-72
2022/04/29 04:14:14;;;;;;;23.25;8.43;;;;;;;;;;5035361;28;20525;-72
2022/04/29 04:16:40;;;;;;;19.63;8.07;;;;;;;;;;5035387;28;20069;-72
2022/04/29 04:19:06;;;;;;;17.88;7.63;;;;;;;;;;5035324;28;20029;-72
2022/04/29 04:21:33;;;;;;;19.92;8.40;;;;;;;;;;5035190;28;20030;-72
2022/04/29 04:23:59;;;;;;;18.55;8.55;;;;;;;;;;5035204;28;20720;-72
2022/04/29 04:26:25;;;;;;;28.50;8.68;;;;;;;;;;5035127;28;20029;-72
2022/04/29 04:28:51;;;;;;;21.45;8.15;;;;;;;;;;5035120;28;20068;-72
2022/04/29 04:31:21;;;;;;;20.25;8.02;;;;;;;;;;5034805;28;20033;-72
2022/04/29 04:33:47;;;;;;;30.20;8.77;;;;;;;;;;5050234;28;20104;-72
2022/04/29 04:36:13;;;;;;;18.65;8.63;;;;;;;;;;5034742;28;20026;-73
2022/04/29 04:38:39;;;;;;;22.20;8.27;;;;;;;;;;5034851;28;20026;-72
2022/04/29 04:41:07;;;;;;;20.35;8.35;;;;;;;;;;5034856;28;20112;-73
2022/04/29 04:43:33;;;;;;;25.35;8.02;;;;;;;;;;5034718;28;20017;-72
2022/04/29 04:45:59;;;;;;;20.75;7.95;;;;;;;;;;5034748;28;20352;-72
2022/04/29 04:48:25;;;;;;;21.58;8.43;;;;;;;;;;5050033;28;20028;-72
2022/04/29 04:50:51;;;;;;;24.55;8.02;;;;;;;;;;5034557;28;20446;-72
2022/04/29 04:53:17;;;;;;;20.75;8.55;;;;;;;;;;5049590;28;20407;-72
2022/04/29 04:55:43;;;;;;;22.77;7.90;;;;;;;;;;5049834;28;20033;-72
2022/04/29 04:58:09;;;;;;;19.42;8.30;;;;;;;;;;5034648;28;20108;-72
2022/04/29 05:00:36;;;;;;;21.85;8.18;;;;;;;;;;5034217;28;20419;-73
2022/04/29 05:03:02;;;;;;;20.60;8.10;;;;;;;;;;5034366;28;20403;-72
2022/04/29 05:05:28;;;;;;;28.58;8.65;;;;;;;;;;5049489;28;20026;-73
2022/04/29 05:07:54;;;;;;;20.83;8.48;;;;;;;;;;5013546;28;20483;-72
2022/04/29 05:10:20;;;;;;;17.65;8.25;;;;;;;;;;5014617;28;20030;-73
2022/04/29 05:12:47;;;;;;;17.90;8.02;;;;;;;;;;5028607;28;20029;-72
2022/04/29 05:15:16;;;;;;;18.92;8.00;;;;;;;;;;5034209;28;20085;-72
2022/04/29 05:17:43;;;;;;;26.42;7.50;;;;;;;;;;5034212;28;20152;-72
2022/04/29 05:20:10;;;;;;;17.48;8.60;;;;;;;;;;5034066;28;20100;-72
2022/04/29 05:22:36;;;;;;;22.75;8.52;;;;;;;;;;5033936;28;20033;-72
2022/04/29 05:25:02;;;;;;;25.92;7.90;;;;;;;;;;5033928;28;20079;-72
2022/04/29 05:27:28;;;;;;;18.58;8.50;;;;;;;;;;5033985;28;20415;-72
2022/04/29 05:29:54;;;;;;;22.58;7.47;;;;;;;;;;5032349;28;20464;-72
2022/04/29 05:32:20;;;;;;;22.38;7.63;;;;;;;;;;5049131;28;20472;-72
2022/04/29 05:34:47;;;;;;;22.75;7.03;;;;;;;;;;5033737;28;20468;-72
2022/04/29 05:37:13;;;;;;;24.20;7.28;;;;;;;;;;5033741;28;20036;-72
2022/04/29 05:42:24;;;;;;;14.75;6.95;;;;;;;;;;5033712;28;20044;-72
2022/04/29 05:44:50;;;;;;;21.02;7.35;;;;;;;;;;5048938;28;20447;-72
2022/04/29 05:47:17;;;;;;;19.05;7.30;;;;;;;;;;5048676;28;20065;-72
2022/04/29 05:49:43;;;;;;;22.40;7.53;;;;;;;;;;5033486;28;20021;-72
2022/04/29 05:52:09;;;;;;;18.35;7.03;;;;;;;;;;5033363;28;20029;-72
2022/04/29 05:54:36;;;;;;;20.27;6.68;;;;;;;;;;5046150;28;20041;-72
2022/04/29 05:57:02;;;;;;;22.17;6.93;;;;;;;;;;5020769;28;20350;-72
2022/04/29 05:59:29;;;;;;;15.73;6.80;;;;;;;;;;5023857;28;20452;-72
2022/04/29 06:01:55;;;;;;;13.80;6.50;;;;;;;;;;5022245;28;20026;-73
2022/04/29 06:04:22;;;;;;;26.13;6.97;;;;;;;;;;5021935;28;20095;-73
2022/04/29 06:06:48;;;;;;;20.88;6.32;;;;;;;;;;5021948;28;20377;-73
2022/04/29 06:09:14;;;;;;;19.65;6.22;;;;;;;;;;5022869;28;20067;-72
2022/04/29 06:11:40;;;;;;;16.75;7.35;;;;;;;;;;5026280;28;20112;-72
2022/04/29 06:14:06;;;;;;;20.75;7.43;;;;;;;;;;5021723;28;20080;-73
2022/04/29 06:16:33;;;;;;;17.08;7.05;;;;;;;;;;5023030;28;20478;-73
2022/04/29 06:18:59;;;;;;;17.50;6.07;;;;;;;;;;5023141;28;20071;-72
2022/04/29 06:21:26;;;;;;;14.82;5.55;;;;;;;;;;5021564;28;20083;-73
2022/04/29 06:23:52;;;;;;;20.35;7.00;;;;;;;;;;5021708;28;20029;-73
2022/04/29 06:26:18;;;;;;;17.75;6.15;;;;;;;;;;5023182;28;20014;-73
2022/04/29 06:28:44;;;;;;;17.02;6.15;;;;;;;;;;5021635;28;20098;-73
2022/04/29 06:31:11;;;;;;;14.38;6.50;;;;;;;;;;5024006;28;20471;-72
2022/04/29 06:33:38;;;;;;;16.27;6.00;;;;;;;;;;5021949;28;20055;-74
2022/04/29 06:36:06;;;;;;;15.52;6.85;;;;;;;;;;5023254;28;20018;-74
2022/04/29 06:38:32;;;;;;;15.40;6.00;;;;;;;;;;5022056;28;20030;-73
2022/04/29 06:40:58;;;;;;;18.67;6.63;;;;;;;;;;5021605;28;20022;-77
2022/04/29 06:43:25;;;;;;;17.45;5.93;;;;;;;;;;5023190;28;20017;-77
2022/04/29 06:45:51;;;;;;;17.83;6.03;;;;;;;;;;5022971;28;20025;-77
2022/04/29 06:48:17;;;;;;;17.23;6.20;;;;;;;;;;5020459;28;20017;-77
2022/04/29 06:50:43;;;;;;;18.10;5.90;;;;;;;;;;5020730;28;20100;-77
2022/04/29 06:53:09;;;;;;;18.17;5.88;;;;;;;;;;5020589;28;20424;-77
2022/04/29 06:55:39;;;;;;;15.32;5.95;;;;;;;;;;5022396;28;20034;-78
2022/04/29 06:58:05;;;;;;;18.85;6.68;;;;;;;;;;5019688;28;20379;-77
2022/04/29 07:00:31;;;;;;;18.95;5.55;;;;;;;;;;5024242;28;20376;-77
2022/04/29 07:02:57;;;;;;;14.40;5.53;;;;;;;;;;5021438;28;20041;-77
2022/04/29 07:05:24;;;;;;;13.55;5.50;;;;;;;;;;5018815;28;20018;-77
2022/04/29 07:07:51;;;;;;;15.35;5.05;;;;;;;;;;5019968;28;20022;-77
2022/04/29 07:10:17;;;;;;;15.27;5.72;;;;;;;;;;5023686;28;20380;-78
2022/04/29 07:12:44;;;;;;;13.98;6.15;;;;;;;;;;5023408;28;20087;-77
2022/04/29 07:15:13;;;;;;;17.65;5.40;;;;;;;;;;5019512;28;20060;-77
2022/04/29 07:17:39;;;;;;;17.75;5.50;;;;;;;;;;5025619;28;20022;-77
2022/04/29 07:20:06;;;;;;;17.00;6.07;;;;;;;;;;5023731;28;20076;-77
2022/04/29 07:22:32;;;;;;;19.98;5.50;;;;;;;;;;5022255;28;20030;-77
2022/04/29 07:24:58;;;;;;;16.42;4.88;;;;;;;;;;5024929;28;20125;-77
2022/04/29 07:27:24;;;;;;;14.55;5.43;;;;;;;;;;5021076;28;20375;-77
2022/04/29 07:29:50;;;;;;;13.10;4.60;;;;;;;;;;5021322;28;20456;-77
2022/04/29 07:32:17;;;;;;;19.38;5.15;;;;;;;;;;5024200;28;20037;-77
2022/04/29 07:42:56;;;;;;;11.38;4.35;;;;;;;;;;5025828;28;20041;-77
2022/04/29 07:45:22;;;;;;;19.73;5.78;;;;;;;;;;5025316;28;20034;-77
2022/04/29 07:47:50;;;;;;;12.63;4.38;;;;;;;;;;5020084;28;20014;-77
2022/04/29 07:50:16;;;;;;;13.40;4.40;;;;;;;;;;5016403;28;20017;-78
2022/04/29 07:52:42;;;;;;;14.57;4.68;;;;;;;;;;5021482;28;20642;-77
2022/04/29 07:55:08;;;;;;;20.00;5.70;;;;;;;;;;5026118;28;20025;-77
2022/04/29 07:57:34;;;;;;;13.20;4.60;;;;;;;;;;5027915;28;20029;-79
2022/04/29 08:00:00;;;;;;;13.52;4.60;;;;;;;;;;5031639;28;20044;-74
2022/04/29 08:02:26;;;;;;;14.52;4.55;;;;;;;;;;5014575;28;20022;-76
2022/04/29 08:04:52;;;;;;;15.10;6.45;;;;;;;;;;5012263;28;20053;-76
2022/04/29 08:07:18;;;;;;;12.10;4.97;;;;;;;;;;5012172;28;20022;-76
2022/04/29 08:09:44;;;;;;;15.95;4.93;;;;;;;;;;5010756;28;20029;-76
2022/04/29 08:12:10;;;;;;;13.85;4.82;;;;;;;;;;5012366;28;20033;-76
2022/04/29 08:14:36;;;;;;;20.67;5.32;;;;;;;;;;5012206;28;20041;-76
2022/04/29 08:17:02;;;;;;;13.90;4.75;;;;;;;;;;5012190;28;20026;-76
2022/04/29 08:19:30;;;;;;;9.60;4.53;;;;;;;;;;5012296;28;20026;-77
2022/04/29 08:21:56;;;;;;;9.52;4.72;;;;;;;;;;5012125;28;20022;-76
2022/04/29 08:24:23;;;;;;;12.98;4.43;;;;;;;;;;5012153;28;20022;-76
2022/04/29 08:26:49;;;;;;;11.68;4.80;;;;;;;;;;5015271;28;20141;-76
2022/04/29 08:29:15;;;;;;;13.20;4.32;;;;;;;;;;5017456;28;20487;-74
2022/04/29 08:31:41;;;;;;;14.80;4.53;;;;;;;;;;5023226;28;20479;-75
2022/04/29 08:34:09;;;;;;;13.35;4.57;;;;;;;;;;5030939;28;20037;-75
2022/04/29 08:36:35;;;;;;;13.18;5.03;;;;;;;;;;5011376;28;20387;-74
2022/04/29 08:39:01;;;;;;;13.43;4.65;;;;;;;;;;5011450;28;20113;-75
2022/04/29 08:41:27;;;;;;;19.15;6.13;;;;;;;;;;5012933;28;20037;-75
2022/04/29 08:43:54;;;;;;;19.73;4.65;;;;;;;;;;5014978;28;20029;-75
2022/04/29 08:46:23;;;;;;;12.70;4.30;;;;;;;;;;5014889;28;20022;-75
2022/04/29 08:48:50;;;;;;;12.57;5.10;;;;;;;;;;5013467;28;20080;-75
2022/04/29 08:51:17;;;;;;;10.00;4.75;;;;;;;;;;5014951;28;20105;-75
2022/04/29 08:53:43;;;;;;;10.85;4.85;;;;;;;;;;5013254;28;20057;-75
2022/04/29 08:58:54;;;;;;;10.18;4.15;;;;;;;;;;5032715;28;20060;-75
2022/04/29 09:01:21;;;;;;;10.82;4.70;;;;;;;;;;5029584;28;20026;-75
2022/04/29 09:03:47;;;;;;;16.52;4.60;;;;;;;;;;5029671;28;20026;-75
2022/04/29 09:06:17;;;;;;;11.77;4.97;;;;;;;;;;5029523;28;20037;-75
2022/04/29 09:08:46;;;;;;;14.02;4.40;;;;;;;;;;5014558;28;20022;-76
2022/04/29 09:11:20;;;;;;;8.90;4.10;;;;;;;;;;5015725;28;20018;-75
2022/04/29 09:13:46;;;;;;;8.05;4.10;;;;;;;;;;5034276;28;20064;-76
2022/04/29 09:16:14;;;;;;;19.33;4.45;;;;;;;;;;5034160;28;20026;-75
2022/04/29 09:18:43;;;;;;;9.68;3.95;;;;;;;;;;5034164;28;20025;-75
2022/04/29 09:21:10;;;;;;;14.82;4.05;;;;;;;;;;5033836;28;20051;-75
2022/04/29 09:23:38;;;;;;;10.55;3.97;;;;;;;;;;5033913;28;20025;-75
2022/04/29 09:26:05;;;;;;;14.38;3.95;;;;;;;;;;5034040;28;20143;-75
2022/04/29 09:28:33;;;;;;;14.18;4.10;;;;;;;;;;5033918;28;20021;-75
2022/04/29 09:30:59;;;;;;;13.10;4.22;;;;;;;;;;5022189;28;20427;-75
2022/04/29 09:33:26;;;;;;;10.48;3.72;;;;;;;;;;5013988;28;20029;-75
2022/04/29 09:35:55;;;;;;;14.93;3.92;;;;;;;;;;5013828;28;20396;-75
2022/04/29 09:41:07;;;;;;;9.35;3.45;;;;;;;;;;5022110;28;20124;-75
2022/04/29 09:43:37;;;;;;;10.27;3.95;;;;;;;;;;5024817;28;20493;-77
2022/04/29 09:46:20;;;;;;;11.60;4.13;;;;;;;;;;5013066;28;20022;-77
2022/04/29 09:48:53;;;;;;;10.88;4.43;;;;;;;;;;5037243;28;20033;-77
2022/04/29 09:51:52;;;;;;;13.88;4.72;;;;;;;;;;5041777;28;20484;-77
2022/04/29 09:54:22;;;;;;;17.20;4.90;;;;;;;;;;4984500;28;20120;-77
2022/04/29 09:57:07;;;;;;;13.35;5.90;;;;;;;;;;5001745;28;20042;-77
2022/04/29 09:59:34;;;;;;;13.15;4.57;;;;;;;;;;5004057;28;20026;-77
2022/04/29 10:02:00;;;;;;;11.18;4.32;;;;;;;;;;4999355;28;20029;-77
2022/04/29 10:04:30;;;;;;;14.30;4.65;;;;;;;;;;4997950;28;20061;-77
2022/04/29 10:06:56;;;;;;;15.35;4.20;;;;;;;;;;4999370;28;20168;-77
2022/04/29 10:09:23;;;;;;;9.40;4.32;;;;;;;;;;5004336;28;20041;-77
2022/04/29 10:11:49;;;;;;;10.60;4.63;;;;;;;;;;5000128;28;20046;-77
2022/04/29 10:14:17;;;;;;;15.27;4.72;;;;;;;;;;5003419;28;20155;-77
2022/04/29 10:21:15;;;;;;;9.50;4.53;;;;;;;;;;5000890;28;20038;-77
2022/04/29 10:22:19;;;;;;;12.52;4.30;;;;;;;;;;5001559;28;20032;-78
2022/04/29 10:24:45;;;;;;;11.10;4.45;;;;;;;;;;4999248;28;20038;-78
2022/04/29 10:27:11;;;;;;;15.30;4.65;;;;;;;;;;5002385;28;20022;-76
2022/04/29 10:29:38;;;;;;;12.13;4.22;;;;;;;;;;4999851;28;20033;-79
2022/04/29 10:32:04;;;;;;;8.43;3.90;;;;;;;;;;5014856;28;20026;-76
2022/04/29 10:34:33;;;;;;;9.60;4.00;;;;;;;;;;5014035;28;20083;-79
2022/04/29 10:36:59;;;;;;;14.27;3.97;;;;;;;;;;5020914;28;20026;-76
2022/04/29 10:39:26;;;;;;;9.00;3.53;;;;;;;;;;5022718;28;20026;-76
2022/04/29 10:41:58;;;;;;;9.20;4.00;;;;;;;;;;5023687;28;20100;-76
2022/04/29 10:44:25;;;;;;;10.88;4.10;;;;;;;;;;5023028;28;20025;-76
2022/04/29 10:46:51;;;;;;;11.57;4.20;;;;;;;;;;5019399;28;20022;-80
2022/04/29 10:49:21;;;;;;;9.80;3.50;;;;;;;;;;5030560;28;20103;-84
2022/04/29 10:51:48;;;;;;;13.02;3.92;;;;;;;;;;5033656;28;20017;-83
2022/04/29 10:54:14;;;;;;;8.52;3.92;;;;;;;;;;5016264;28;20127;-84
2022/04/29 10:56:40;;;;;;;11.95;3.70;;;;;;;;;;5014129;28;20053;-84
2022/04/29 10:59:09;;;;;;;11.30;4.05;;;;;;;;;;5021324;28;20021;-83
2022/04/29 11:01:36;;;;;;;9.55;3.67;;;;;;;;;;5033192;28;20357;-84
2022/04/29 11:04:02;;;;;;;13.05;3.90;;;;;;;;;;5032706;28;20033;-86
2022/04/29 11:06:40;;;;;;;13.63;4.53;;;;;;;;;;5033164;28;20049;-84
2022/04/29 11:09:26;;;;;;;8.90;3.67;;;;;;;;;;5033259;28;20075;-84
2022/04/29 11:11:53;;;;;;;11.57;3.55;;;;;;;;;;5032837;28;20065;-83
2022/04/29 11:14:19;;;;;;;9.27;3.58;;;;;;;;;;5033141;28;20026;-83
2022/04/29 11:17:08;;;;;;;8.23;3.55;;;;;;;;;;5033161;28;20111;-83
2022/04/29 11:19:40;;;;;;;7.78;3.40;;;;;;;;;;5013489;28;20041;-84
2022/04/29 11:24:53;;;;;;;11.45;3.50;;;;;;;;;;5013192;28;20032;-73
2022/04/29 11:27:26;;;;;;;6.07;3.70;;;;;;;;;;5012197;28;20032;-73
2022/04/29 11:29:53;;;;;;;8.30;3.70;;;;;;;;;;5014227;28;20026;-73
2022/04/29 11:32:25;;;;;;;6.63;3.30;;;;;;;;;;5031858;28;20026;-73
2022/04/29 11:34:55;;;;;;;11.35;3.97;;;;;;;;;;5031722;28;20026;-73
2022/04/29 11:37:27;;;;;;;9.88;3.30;;;;;;;;;;5031107;28;20401;-73
2022/04/29 11:39:57;;;;;;;16.58;4.50;;;;;;;;;;5022055;28;20029;-73
2022/04/29 11:42:23;;;;;;;9.00;4.40;;;;;;;;;;5021683;28;20030;-73
2022/04/29 11:44:49;;;;;;;9.93;4.25;;;;;;;;;;5019089;28;20041;-73
2022/04/29 11:47:16;;;;;;;11.95;4.55;;;;;;;;;;5022163;28;20017;-74
2022/04/29 11:49:43;;;;;;;17.13;4.68;;;;;;;;;;5021572;28;20037;-72
2022/04/29 11:52:25;;;;;;;10.90;4.40;;;;;;;;;;5020622;28;20363;-73
2022/04/29 11:54:51;;;;;;;;;;;;;;;;;;5012325;28;20095;-72
2022/04/29 11:57:17;;;;;;;11.93;3.90;;;;;;;;;;5010614;28;19956;-72
2022/04/29 11:59:44;;;;;;;13.60;4.43;;;;;;;;;;5011789;28;20026;-72
2022/04/29 12:02:11;;;;;;;13.20;4.43;;;;;;;;;;5026865;28;20109;-72
2022/04/29 12:04:37;;;;;;;10.25;4.40;;;;;;;;;;5031315;28;20029;-72
2022/04/29 12:07:05;;;;;;;7.63;3.67;;;;;;;;;;5029982;28;20444;-72
2022/04/29 12:09:34;;;;;;;11.32;4.20;;;;;;;;;;5031380;28;20018;-72
2022/04/29 12:12:00;;;;;;;8.63;3.70;;;;;;;;;;5031355;28;20060;-72
2022/04/29 12:14:26;;;;;;;11.73;3.38;;;;;;;;;;5030103;28;20432;-72
2022/04/29 12:16:53;;;;;;;7.95;3.20;;;;;;;;;;5033745;28;20026;-72
2022/04/29 12:19:21;;;;;;;8.30;3.60;;;;;;;;;;5035341;28;20065;-72
2022/04/29 12:21:55;;;;;;;9.13;3.45;;;;;;;;;;5035089;28;20045;-71
2022/04/29 12:24:21;;;;;;;8.55;3.40;;;;;;;;;;5035037;28;20022;-71
2022/04/29 12:27:06;;;;;;;9.65;3.67;;;;;;;;;;5029456;28;20395;-72
2022/04/29 12:29:33;;;;;;;7.32;3.75;;;;;;;;;;5020700;28;20463;-72
2022/04/29 12:35:06;;;;;;;7.40;4.07;;;;;;;;;;5015133;28;20064;-75
2022/04/29 12:37:32;;;;;;;8.63;4.10;;;;;;;;;;5015327;28;20026;-71
2022/04/29 12:40:05;;;;;;;7.97;4.35;;;;;;;;;;5030307;28;20049;-73
2022/04/29 12:42:32;;;;;;;7.80;4.00;;;;;;;;;;5015119;28;20026;-72
2022/04/29 12:45:04;;;;;;;9.57;4.60;;;;;;;;;;5015023;28;20021;-72
2022/04/29 12:47:32;;;;;;;15.55;4.45;;;;;;;;;;5015092;28;20361;-70
2022/04/29 12:50:17;;;;;;;9.80;4.20;;;;;;;;;;5025013;28;20034;-71
2022/04/29 12:53:13;;;;;;;8.40;4.38;;;;;;;;;;5025474;28;20452;-71
2022/04/29 12:55:39;;;;;;;14.02;4.00;;;;;;;;;;4972200;28;20043;-71
2022/04/29 12:58:06;;;;;;;9.35;4.72;;;;;;;;;;4973034;28;20042;-70
2022/04/29 13:00:32;;;;;;;9.18;4.30;;;;;;;;;;4972724;28;20030;-70
2022/04/29 13:03:00;;;;;;;8.18;4.28;;;;;;;;;;4956612;28;20035;-71
2022/04/29 13:05:26;;;;;;;15.60;4.22;;;;;;;;;;4972801;28;20069;-70
2022/04/29 13:07:52;;;;;;;11.57;4.30;;;;;;;;;;4972894;28;20549;-71
2022/04/29 13:10:18;;;;;;;12.02;4.65;;;;;;;;;;4972903;28;20023;-70
2022/04/29 13:12:45;;;;;;;10.45;4.25;;;;;;;;;;4972414;28;20035;-70
2022/04/29 13:15:11;;;;;;;10.95;4.53;;;;;;;;;;4972887;28;20035;-71
2022/04/29 13:17:38;;;;;;;11.25;4.97;;;;;;;;;;4973256;28;20027;-71
2022/04/29 13:20:05;;;;;;;8.90;4.50;;;;;;;;;;4973158;28;20074;-73
2022/04/29 13:22:31;;;;;;;10.07;4.40;;;;;;;;;;4973211;28;20026;-73
2022/04/29 13:25:00;;;;;;;8.40;4.35;;;;;;;;;;4956775;28;20396;-73
2022/04/29 13:27:26;;;;;;;10.65;4.82;;;;;;;;;;4972052;28;20033;-73
2022/04/29 13:29:52;;;;;;;8.50;4.13;;;;;;;;;;4972330;28;20480;-74
2022/04/29 13:32:18;;;;;;;8.88;4.10;;;;;;;;;;5002992;28;20038;-73
2022/04/29 13:34:44;;;;;;;9.43;4.18;;;;;;;;;;5023982;28;20060;-73
2022/04/29 13:37:11;;;;;;;7.25;4.35;;;;;;;;;;5023905;28;20033;-73
2022/04/29 13:39:37;;;;;;;8.88;4.13;;;;;;;;;;5022487;28;20030;-73
2022/04/29 13:42:04;;;;;;;8.48;4.53;;;;;;;;;;5024267;28;20021;-73
2022/04/29 13:44:30;;;;;;;11.07;4.20;;;;;;;;;;5026626;28;20017;-72
2022/04/29 13:46:56;;;;;;;10.70;4.05;;;;;;;;;;5033696;28;20021;-73
2022/04/29 13:49:22;;;;;;;6.38;3.95;;;;;;;;;;5033714;28;20385;-73
2022/04/29 13:51:48;;;;;;;8.02;4.00;;;;;;;;;;5033552;28;20459;-73
2022/04/29 13:54:14;;;;;;;5.50;3.47;;;;;;;;;;5033190;28;20067;-72
2022/04/29 13:56:41;;;;;;;10.77;3.90;;;;;;;;;;5033693;28;20030;-70
2022/04/29 13:59:07;;;;;;;10.73;3.55;;;;;;;;;;5033460;28;20025;-71
2022/04/29 14:01:33;;;;;;;8.55;3.58;;;;;;;;;;5033056;28;20025;-72
2022/04/29 14:03:59;;;;;;;8.65;3.40;;;;;;;;;;5048496;28;20336;-71
2022/04/29 14:06:25;;;;;;;10.45;3.80;;;;;;;;;;5033304;28;20022;-70
2022/04/29 14:08:51;;;;;;;7.40;3.38;;;;;;;;;;5033399;28;20032;-71
2022/04/29 14:11:17;;;;;;;10.35;4.03;;;;;;;;;;5033451;28;20472;-70
2022/04/29 14:13:44;;;;;;;12.90;3.40;;;;;;;;;;5033255;28;20060;-70
2022/04/29 14:16:10;;;;;;;9.63;3.80;;;;;;;;;;5033110;28;20044;-70
2022/04/29 14:18:36;;;;;;;5.80;3.70;;;;;;;;;;5033120;28;20025;-71
2022/04/29 14:21:02;;;;;;;8.93;4.30;;;;;;;;;;5032995;28;20029;-71
2022/04/29 14:23:28;;;;;;;35.20;5.30;;;;;;;;;;5032915;28;20030;-71
2022/04/29 14:25:54;;;;;;;7.38;3.40;;;;;;;;;;5032954;28;20165;-70
2022/04/29 14:28:20;;;;;;;7.10;4.63;;;;;;;;;;5032880;28;20060;-71
2022/04/29 14:30:46;;;;;;;8.30;4.13;;;;;;;;;;5026155;28;20497;-69
2022/04/29 14:33:12;;;;;;;9.88;3.92;;;;;;;;;;5022260;28;20022;-70
2022/04/29 14:35:38;;;;;;;12.75;4.05;;;;;;;;;;5021676;28;20471;-69
2022/04/29 14:38:05;;;;;;;11.98;3.88;;;;;;;;;;5021950;28;20027;-69
2022/04/29 14:40:32;;;;;;;12.52;4.00;;;;;;;;;;5021715;28;20018;-69
2022/04/29 14:42:58;;;;;;;8.63;4.00;;;;;;;;;;5021664;28;20064;-70
2022/04/29 14:45:24;;;;;;;13.00;4.05;;;;;;;;;;5023211;28;20036;-70
2022/04/29 14:47:50;;;;;;;9.93;3.92;;;;;;;;;;5022250;28;20056;-70
2022/04/29 14:50:17;;;;;;;10.73;4.57;;;;;;;;;;5030253;28;20434;-70
2022/04/29 14:52:43;;;;;;;11.00;3.92;;;;;;;;;;5029972;28;20137;-69
2022/04/29 14:55:11;;;;;;;9.10;3.35;;;;;;;;;;5030300;28;20472;-69
2022/04/29 14:57:38;;;;;;;6.65;3.92;;;;;;;;;;5030204;28;20029;-69
2022/04/29 15:00:05;;;;;;;14.90;3.50;;;;;;;;;;5030035;28;20083;-69
2022/04/29 15:02:32;;;;;;;7.55;3.47;;;;;;;;;;5013765;28;20060;-70